createdAt,value
2023-03-13T00:01:46.112Z,100.00
2023-03-13T00:04:12.489Z,100.00
2023-03-13T00:06:39.822Z,100.00
2023-03-13T00:09:08.663Z,100.00
2023-03-13T00:11:35.472Z,100.00
2023-03-13T00:14:04.109Z,100.00
2023-03-13T00:16:31.117Z,100.00
2023-03-13T00:18:58.524Z,100.00
2023-03-13T00:21:28.121Z,100.00
2023-03-13T00:23:55.514Z,100.00
2023-03-13T00:26:24.209Z,100.00
2023-03-13T00:28:51.515Z,100.00
2023-03-13T00:31:22.344Z,100.00
2023-03-13T00:33:52.071Z,100.00
2023-03-13T00:36:26.052Z,100.00
2023-03-13T00:38:53.737Z,100.00
2023-03-13T00:41:22.457Z,100.00
2023-03-13T00:43:49.439Z,100.00
2023-03-13T00:46:18.125Z,100.00
2023-03-13T00:48:44.706Z,100.00
2023-03-13T00:51:11.813Z,100.00
2023-03-13T00:53:38.191Z,100.00
2023-03-13T00:56:07.831Z,100.00
2023-03-13T00:58:36.685Z,100.00
2023-03-13T01:01:34.156Z,100.00
2023-03-13T01:04:29.271Z,100.00
2023-03-13T01:06:58.419Z,100.00
2023-03-13T01:09:24.820Z,100.00
2023-03-13T01:11:51.122Z,100.00
2023-03-13T01:14:20.295Z,100.00
2023-03-13T01:16:47.312Z,100.00
2023-03-13T01:19:16.205Z,100.00
2023-03-13T01:21:44.416Z,100.00
2023-03-13T01:24:11.182Z,100.00
2023-03-13T01:26:37.596Z,100.00
2023-03-13T01:29:04.155Z,100.00
2023-03-13T01:31:34.996Z,100.00
2023-03-13T01:34:04.361Z,100.00
2023-03-13T01:36:30.764Z,100.00
2023-03-13T01:38:59.715Z,100.00
2023-03-13T01:41:28.943Z,100.00
2023-03-13T01:43:55.898Z,100.00
2023-03-13T01:46:30.170Z,100.00
2023-03-13T01:49:07.683Z,100.00
2023-03-13T01:51:45.545Z,100.00
2023-03-13T01:54:16.897Z,100.00
2023-03-13T01:56:50.859Z,100.00
2023-03-13T01:59:22.803Z,100.00
2023-03-13T02:01:52.612Z,100.00
2023-03-13T02:04:21.968Z,100.00
2023-03-13T02:06:52.516Z,100.00
2023-03-13T02:09:24.381Z,100.00
2023-03-13T02:12:00.986Z,100.00
2023-03-13T02:14:30.710Z,100.00
2023-03-13T02:16:57.149Z,100.00
2023-03-13T02:19:39.505Z,100.00
2023-03-13T02:22:27.918Z,100.00
2023-03-13T02:25:09.953Z,100.00
2023-03-13T02:27:36.737Z,100.00
2023-03-13T02:30:05.150Z,100.00
2023-03-13T02:32:32.157Z,100.00
2023-03-13T02:35:05.346Z,100.00
2023-03-13T02:37:33.218Z,100.00
2023-03-13T02:40:05.172Z,100.00
2023-03-13T02:42:31.824Z,100.00
2023-03-13T02:44:58.266Z,100.00
2023-03-13T02:47:25.516Z,100.00
2023-03-13T02:49:51.903Z,100.00
2023-03-13T02:52:24.487Z,100.00
2023-03-13T02:54:55.000Z,100.00
2023-03-13T02:57:21.708Z,100.00
2023-03-13T02:59:48.085Z,100.00
2023-03-13T03:02:14.444Z,100.00
2023-03-13T03:04:41.347Z,100.00
2023-03-13T03:07:07.741Z,100.00
2023-03-13T03:09:34.114Z,100.00
2023-03-13T03:12:00.477Z,100.00
2023-03-13T03:14:26.983Z,100.00
2023-03-13T03:16:53.389Z,100.00
2023-03-13T03:19:19.793Z,100.00
2023-03-13T03:21:46.397Z,100.00
2023-03-13T03:24:12.816Z,100.00
2023-03-13T03:26:39.198Z,100.00
2023-03-13T03:29:05.618Z,100.00
2023-03-13T03:31:31.967Z,100.00
2023-03-13T03:33:58.378Z,100.00
2023-03-13T03:36:25.127Z,100.00
2023-03-13T03:38:52.066Z,100.00
2023-03-13T03:41:19.266Z,100.00
2023-03-13T03:43:47.297Z,100.00
2023-03-13T03:46:14.833Z,100.00
2023-03-13T03:48:41.249Z,100.00
2023-03-13T03:51:07.715Z,100.00
2023-03-13T03:53:34.148Z,100.00
2023-03-13T03:56:01.560Z,100.00
2023-03-13T03:58:27.912Z,100.00
2023-03-13T04:00:57.027Z,100.00
2023-03-13T04:03:24.361Z,100.00
2023-03-13T04:05:50.793Z,100.00
2023-03-13T04:08:17.186Z,100.00
2023-03-13T04:10:43.613Z,100.00
2023-03-13T04:13:09.946Z,100.00
2023-03-13T04:15:39.241Z,100.00
2023-03-13T04:18:06.003Z,100.00
2023-03-13T04:20:32.869Z,100.00
2023-03-13T04:22:59.224Z,100.00
2023-03-13T04:25:25.922Z,100.00
2023-03-13T04:27:52.306Z,100.00
2023-03-13T04:30:18.882Z,100.00
2023-03-13T04:32:45.334Z,100.00
2023-03-13T04:35:11.820Z,100.00
2023-03-13T04:37:38.180Z,100.00
2023-03-13T04:40:05.194Z,100.00
2023-03-13T04:42:31.524Z,100.00
2023-03-13T04:44:57.809Z,100.00
2023-03-13T04:47:24.223Z,100.00
2023-03-13T04:49:50.581Z,100.00
2023-03-13T04:52:17.021Z,100.00
2023-03-13T04:54:43.434Z,100.00
2023-03-13T04:57:09.782Z,100.00
2023-03-13T04:59:37.263Z,100.00
2023-03-13T05:02:03.749Z,100.00
2023-03-13T05:04:30.123Z,100.00
2023-03-13T05:06:56.525Z,100.00
2023-03-13T05:09:22.858Z,100.00
2023-03-13T05:11:50.645Z,100.00
2023-03-13T05:14:17.110Z,100.00
2023-03-13T05:16:43.425Z,100.00
2023-03-13T05:19:11.725Z,100.00
2023-03-13T05:21:38.096Z,100.00
2023-03-13T05:24:04.742Z,100.00
2023-03-13T05:26:31.053Z,100.00
2023-03-13T05:28:57.357Z,100.00
2023-03-13T05:31:23.832Z,100.00
2023-03-13T05:33:50.254Z,100.00
2023-03-13T05:36:16.702Z,100.00
2023-03-13T05:38:43.039Z,100.00
2023-03-13T05:41:09.409Z,100.00
2023-03-13T05:43:35.763Z,100.00
2023-03-13T05:46:02.149Z,100.00
2023-03-13T05:48:28.502Z,100.00
2023-03-13T05:50:54.794Z,100.00
2023-03-13T05:53:21.221Z,100.00
2023-03-13T05:55:47.548Z,100.00
2023-03-13T05:58:13.931Z,100.00
2023-03-13T06:00:40.274Z,100.00
2023-03-13T06:03:06.615Z,100.00
2023-03-13T06:05:32.972Z,100.00
2023-03-13T06:07:59.319Z,100.00
2023-03-13T06:10:25.671Z,100.00
2023-03-13T06:12:53.784Z,100.00
2023-03-13T06:15:20.272Z,100.00
2023-03-13T06:17:46.624Z,100.00
2023-03-13T06:20:13.153Z,100.00
2023-03-13T06:22:40.194Z,100.00
2023-03-13T06:25:07.147Z,100.00
2023-03-13T06:27:33.431Z,100.00
2023-03-13T06:29:59.753Z,100.00
2023-03-13T06:32:26.190Z,100.00
2023-03-13T06:34:52.573Z,100.00
2023-03-13T06:37:18.952Z,100.00
2023-03-13T06:39:45.361Z,100.00
2023-03-13T06:42:11.766Z,100.00
2023-03-13T06:44:38.133Z,100.00
2023-03-13T06:47:04.695Z,100.00
2023-03-13T06:49:31.149Z,100.00
2023-03-13T06:51:58.789Z,100.00
2023-03-13T06:54:25.243Z,100.00
2023-03-13T06:56:51.622Z,100.00
2023-03-13T06:59:17.965Z,100.00
2023-03-13T07:01:44.382Z,100.00
2023-03-13T07:04:12.946Z,100.00
2023-03-13T07:06:39.613Z,100.00
2023-03-13T07:09:06.054Z,100.00
2023-03-13T07:11:32.433Z,100.00
2023-03-13T07:14:15.291Z,100.00
2023-03-13T07:16:43.226Z,100.00
2023-03-13T07:19:09.879Z,100.00
2023-03-13T07:21:36.519Z,100.00
2023-03-13T07:24:03.179Z,100.00
2023-03-13T07:26:29.937Z,100.00
2023-03-13T07:28:56.569Z,100.00
2023-03-13T07:31:26.249Z,100.00
2023-03-13T07:33:56.319Z,100.00
2023-03-13T07:36:23.252Z,100.00
2023-03-13T07:38:50.854Z,100.00
2023-03-13T07:41:18.406Z,100.00
2023-03-13T07:43:45.550Z,100.00
2023-03-13T07:46:14.686Z,100.00
2023-03-13T07:48:42.919Z,100.00
2023-03-13T07:51:30.294Z,100.00
2023-03-13T07:54:03.543Z,100.00
2023-03-13T07:56:29.883Z,100.00
2023-03-13T07:58:56.312Z,100.00
2023-03-13T08:01:28.432Z,100.00
2023-03-13T08:03:59.635Z,100.00
2023-03-13T08:06:32.580Z,100.00
2023-03-13T08:09:00.150Z,100.00
2023-03-13T08:11:28.444Z,100.00
2023-03-13T08:13:55.971Z,100.00
2023-03-13T08:16:25.507Z,100.00
2023-03-13T08:18:54.432Z,100.00
2023-03-13T08:21:26.623Z,100.00
2023-03-13T08:23:55.224Z,100.00
2023-03-13T08:26:23.641Z,100.00
2023-03-13T08:28:53.879Z,100.00
2023-03-13T08:31:23.098Z,100.00
2023-03-13T08:33:49.794Z,100.00
2023-03-13T08:36:17.826Z,100.00
2023-03-13T08:38:46.247Z,100.00
2023-03-13T08:41:14.872Z,100.00
2023-03-13T08:43:41.515Z,100.00
2023-03-13T08:46:08.053Z,100.00
2023-03-13T08:48:34.437Z,100.00
2023-03-13T08:51:07.134Z,100.00
2023-03-13T08:53:34.699Z,100.00
2023-03-13T08:56:01.268Z,100.00
2023-03-13T08:58:28.449Z,100.00
2023-03-13T09:00:54.828Z,100.00
2023-03-13T09:03:21.238Z,100.00
2023-03-13T09:05:56.006Z,100.00
2023-03-13T09:08:23.049Z,100.00
2023-03-13T09:10:57.633Z,100.00
2023-03-13T09:13:25.745Z,100.00
2023-03-13T09:16:03.806Z,100.00
2023-03-13T09:18:30.622Z,100.00
2023-03-13T09:20:57.006Z,100.00
2023-03-13T09:23:24.302Z,100.00
2023-03-13T09:25:57.362Z,100.00
2023-03-13T09:28:25.708Z,100.00
2023-03-13T09:30:53.680Z,100.00
2023-03-13T09:33:23.762Z,100.00
2023-03-13T09:35:50.986Z,100.00
2023-03-13T09:38:19.475Z,100.00
2023-03-13T09:40:59.861Z,100.00
2023-03-13T09:43:52.599Z,100.00
2023-03-13T09:46:39.718Z,100.00
2023-03-13T09:49:35.647Z,100.00
2023-03-13T09:52:19.104Z,100.00
2023-03-13T09:54:53.753Z,100.00
2023-03-13T09:57:28.533Z,100.00
2023-03-13T10:00:02.179Z,100.00
2023-03-13T10:02:32.251Z,100.00
2023-03-13T10:05:17.729Z,100.00
2023-03-13T10:07:44.152Z,100.00
2023-03-13T10:10:21.333Z,100.00
2023-03-13T10:12:51.301Z,100.00
2023-03-13T10:15:30.562Z,100.00
2023-03-13T10:17:58.898Z,100.00
2023-03-13T10:20:33.454Z,100.00
2023-03-13T10:23:04.955Z,100.00
2023-03-13T10:25:38.235Z,100.00
2023-03-13T10:28:06.284Z,100.00
2023-03-13T10:30:35.443Z,100.00
2023-03-13T10:33:07.814Z,100.00
2023-03-13T10:35:40.745Z,100.00
2023-03-13T10:38:12.951Z,100.00
2023-03-13T10:40:40.250Z,100.00
2023-03-13T10:43:14.992Z,100.00
2023-03-13T10:45:41.643Z,100.00
2023-03-13T10:48:18.410Z,100.00
2023-03-13T10:50:47.479Z,100.00
2023-03-13T10:53:26.581Z,100.00
2023-03-13T10:56:08.912Z,100.00
2023-03-13T10:58:55.992Z,100.00
2023-03-13T11:01:29.101Z,100.00
2023-03-13T11:03:57.205Z,100.00
2023-03-13T11:06:28.231Z,100.00
2023-03-13T11:09:05.478Z,100.00
2023-03-13T11:11:44.002Z,100.00
2023-03-13T11:14:21.050Z,100.00
2023-03-13T11:16:53.206Z,100.00
2023-03-13T11:19:25.502Z,100.00
2023-03-13T11:22:11.725Z,100.00
2023-03-13T11:24:45.984Z,100.00
2023-03-13T11:27:50.938Z,100.00
2023-03-13T11:30:45.099Z,100.00
2023-03-13T11:33:32.296Z,100.00
2023-03-13T11:36:09.210Z,100.00
2023-03-13T11:38:39.722Z,100.00
2023-03-13T11:41:27.800Z,100.00
2023-03-13T11:44:10.449Z,100.00
2023-03-13T11:46:58.650Z,100.00
2023-03-13T11:49:51.816Z,100.00
2023-03-13T11:52:35.509Z,100.00
2023-03-13T11:55:21.038Z,100.00
2023-03-13T11:58:16.566Z,100.00
2023-03-13T12:00:52.176Z,100.00
2023-03-13T12:03:34.677Z,100.00
2023-03-13T12:06:03.450Z,100.00
2023-03-13T12:08:43.581Z,100.00
2023-03-13T12:11:27.635Z,100.00
2023-03-13T12:14:09.703Z,100.00
2023-03-13T12:16:48.076Z,100.00
2023-03-13T12:19:29.634Z,99.48
2023-03-13T12:22:02.260Z,99.21
2023-03-13T12:24:44.183Z,100.00
2023-03-13T12:27:17.689Z,100.00
2023-03-13T12:30:07.307Z,100.00
2023-03-13T12:32:38.544Z,99.94
2023-03-13T12:35:19.663Z,98.64
2023-03-13T12:38:00.281Z,97.48
2023-03-13T12:40:41.267Z,96.12
2023-03-13T12:43:17.756Z,95.47
2023-03-13T12:46:13.310Z,95.63
2023-03-13T12:48:48.688Z,95.04
2023-03-13T12:51:22.080Z,94.90
2023-03-13T12:53:59.367Z,95.15
2023-03-13T12:56:49.432Z,96.97
2023-03-13T12:59:21.824Z,96.95
2023-03-13T13:01:53.411Z,95.85
2023-03-13T13:04:23.512Z,96.82
2023-03-13T13:07:05.781Z,94.65
2023-03-13T13:10:09.766Z,93.87
2023-03-13T13:12:40.562Z,95.83
2023-03-13T13:15:27.772Z,95.51
2023-03-13T13:18:01.430Z,93.97
2023-03-13T13:21:09.692Z,94.40
2023-03-13T13:23:39.139Z,91.61
2023-03-13T13:26:47.611Z,91.00
2023-03-13T13:29:13.994Z,89.71
2023-03-13T13:31:50.773Z,91.23
2023-03-13T13:34:29.954Z,88.02
2023-03-13T13:36:58.007Z,88.94
2023-03-13T13:39:39.458Z,87.00
2023-03-13T13:42:30.706Z,87.84
2023-03-13T13:45:02.837Z,88.25
2023-03-13T13:47:33.614Z,88.20
2023-03-13T13:50:00.867Z,88.32
2023-03-13T13:52:40.699Z,87.05
2023-03-13T13:55:21.955Z,85.79
2023-03-13T13:57:49.669Z,86.01
2023-03-13T14:00:24.816Z,85.13
2023-03-13T14:02:53.680Z,85.17
2023-03-13T14:05:30.280Z,84.81
2023-03-13T14:08:03.186Z,85.40
2023-03-13T14:10:37.811Z,83.54
2023-03-13T14:13:16.746Z,83.56
2023-03-13T14:15:45.815Z,82.14
2023-03-13T14:18:20.984Z,83.10
2023-03-13T14:20:59.870Z,82.93
2023-03-13T14:23:43.916Z,83.67
2023-03-13T14:26:26.575Z,83.79
2023-03-13T14:28:56.063Z,81.61
2023-03-13T14:31:29.872Z,81.33
2023-03-13T14:34:01.616Z,81.42
2023-03-13T14:36:28.580Z,82.16
2023-03-13T14:39:00.050Z,81.67
2023-03-13T14:41:37.691Z,80.88
2023-03-13T14:44:15.063Z,81.78
2023-03-13T14:46:43.437Z,82.68
2023-03-13T14:49:20.969Z,80.68
2023-03-13T14:51:58.836Z,80.28
2023-03-13T14:54:29.098Z,80.35
2023-03-13T14:57:10.374Z,80.92
2023-03-13T14:59:36.790Z,81.88
2023-03-13T15:02:43.170Z,82.29
2023-03-13T15:05:32.581Z,81.52
2023-03-13T15:07:58.990Z,81.10
2023-03-13T15:10:32.221Z,78.94
2023-03-13T15:12:59.050Z,80.99
2023-03-13T15:15:25.657Z,80.21
2023-03-13T15:17:52.029Z,80.02
2023-03-13T15:20:18.551Z,83.33
2023-03-13T15:22:46.376Z,94.72
2023-03-13T15:25:23.426Z,100.00
2023-03-13T15:27:50.769Z,100.00
2023-03-13T15:30:19.030Z,100.00
2023-03-13T15:32:46.833Z,100.00
2023-03-13T15:35:27.510Z,100.00
2023-03-13T15:37:55.013Z,100.00
2023-03-13T15:40:21.565Z,100.00
2023-03-13T15:42:47.920Z,100.00
2023-03-13T15:45:14.279Z,100.00
2023-03-13T15:47:40.682Z,100.00
2023-03-13T15:50:12.892Z,100.00
2023-03-13T15:52:39.394Z,100.00
2023-03-13T15:55:07.938Z,100.00
2023-03-13T15:57:44.076Z,100.00
2023-03-13T16:00:25.132Z,100.00
2023-03-13T16:02:51.544Z,100.00
2023-03-13T16:05:18.239Z,100.00
2023-03-13T16:07:44.733Z,100.00
2023-03-13T16:10:18.310Z,100.00
2023-03-13T16:12:44.767Z,100.00
2023-03-13T16:15:11.432Z,100.00
2023-03-13T16:17:37.845Z,100.00
2023-03-13T16:20:11.616Z,100.00
2023-03-13T16:22:38.014Z,100.00
2023-03-13T16:25:04.804Z,100.00
2023-03-13T16:27:31.129Z,100.00
2023-03-13T16:29:57.524Z,100.00
2023-03-13T16:32:25.496Z,100.00
2023-03-13T16:34:51.995Z,100.00
2023-03-13T16:37:20.498Z,100.00
2023-03-13T16:39:48.087Z,100.00
2023-03-13T16:42:14.502Z,100.00
2023-03-13T16:44:40.910Z,100.00
2023-03-13T16:47:27.932Z,100.00
2023-03-13T16:49:54.837Z,100.00
2023-03-13T16:52:21.243Z,100.00
2023-03-13T16:54:47.719Z,100.00
2023-03-13T16:57:18.572Z,100.00
2023-03-13T16:59:44.973Z,100.00
2023-03-13T17:02:16.418Z,100.00
2023-03-13T17:04:44.859Z,100.00
2023-03-13T17:07:23.497Z,100.00
2023-03-13T17:09:51.220Z,100.00
2023-03-13T17:12:18.843Z,100.00
2023-03-13T17:14:45.609Z,100.00
2023-03-13T17:17:17.703Z,100.00
2023-03-13T17:19:44.979Z,100.00
2023-03-13T17:22:17.611Z,100.00
2023-03-13T17:24:44.153Z,100.00
2023-03-13T17:27:14.973Z,100.00
2023-03-13T17:29:42.342Z,100.00
2023-03-13T17:32:13.665Z,100.00
2023-03-13T17:34:41.260Z,100.00
2023-03-13T17:37:15.846Z,100.00
2023-03-13T17:39:43.640Z,100.00
2023-03-13T17:42:09.984Z,100.00
2023-03-13T17:44:38.179Z,100.00
2023-03-13T17:47:11.421Z,100.00
2023-03-13T17:49:37.871Z,100.00
2023-03-13T17:52:04.515Z,100.00
2023-03-13T17:54:30.876Z,100.00
2023-03-13T17:56:57.261Z,100.00
2023-03-13T17:59:23.652Z,100.00
2023-03-13T18:01:50.091Z,100.00
2023-03-13T18:04:16.487Z,100.00
2023-03-13T18:06:45.551Z,100.00
2023-03-13T18:09:17.321Z,100.00
2023-03-13T18:11:44.052Z,100.00
2023-03-13T18:14:11.120Z,100.00
2023-03-13T18:16:52.138Z,100.00
2023-03-13T18:19:22.721Z,100.00
2023-03-13T18:21:51.809Z,100.00
2023-03-13T18:24:18.349Z,100.00
2023-03-13T18:26:46.862Z,100.00
2023-03-13T18:29:19.210Z,100.00
2023-03-13T18:31:45.672Z,100.00
2023-03-13T18:34:12.308Z,100.00
2023-03-13T18:36:39.059Z,100.00
2023-03-13T18:39:06.160Z,100.00
2023-03-13T18:41:33.454Z,100.00
2023-03-13T18:44:03.272Z,100.00
2023-03-13T18:46:33.323Z,100.00
2023-03-13T18:49:00.973Z,100.00
2023-03-13T18:51:28.276Z,100.00
2023-03-13T18:53:55.607Z,100.00
2023-03-13T18:56:25.005Z,100.00
2023-03-13T18:58:53.450Z,100.00
2023-03-13T19:01:22.568Z,100.00
2023-03-13T19:03:49.337Z,100.00
2023-03-13T19:06:20.372Z,100.00
2023-03-13T19:08:48.003Z,100.00
2023-03-13T19:11:15.894Z,100.00
2023-03-13T19:13:42.592Z,100.00
2023-03-13T19:16:13.892Z,100.00
2023-03-13T19:18:40.306Z,100.00
2023-03-13T19:21:30.569Z,100.00
2023-03-13T19:23:57.590Z,100.00
2023-03-13T19:26:37.323Z,100.00
2023-03-13T19:29:04.737Z,100.00
2023-03-13T19:31:31.109Z,100.00
2023-03-13T19:33:57.462Z,100.00
2023-03-13T19:36:24.746Z,100.00
2023-03-13T19:38:51.278Z,100.00
2023-03-13T19:41:17.654Z,100.00
2023-03-13T19:43:45.349Z,100.00
2023-03-13T19:46:25.798Z,100.00
2023-03-13T19:49:02.227Z,100.00
2023-03-13T19:51:30.258Z,100.00
2023-03-13T19:53:57.282Z,100.00
2023-03-13T19:56:27.760Z,100.00
2023-03-13T19:59:02.652Z,100.00
2023-03-13T20:01:29.998Z,100.00
2023-03-13T20:03:56.692Z,100.00
2023-03-13T20:06:25.648Z,100.00
2023-03-13T20:08:57.402Z,100.00
2023-03-13T20:11:24.516Z,100.00
2023-03-13T20:13:51.343Z,100.00
2023-03-13T20:16:18.064Z,100.00
2023-03-13T20:18:47.319Z,100.00
2023-03-13T20:21:16.130Z,100.00
2023-03-13T20:23:43.469Z,100.00
2023-03-13T20:26:12.136Z,100.00
2023-03-13T20:28:40.470Z,100.00
2023-03-13T20:31:07.863Z,100.00
2023-03-13T20:33:35.224Z,100.00
2023-03-13T20:36:08.153Z,100.00
2023-03-13T20:38:34.900Z,100.00
2023-03-13T20:41:02.113Z,100.00
2023-03-13T20:43:29.210Z,100.00
2023-03-13T20:45:55.852Z,100.00
2023-03-13T20:48:22.860Z,100.00
2023-03-13T20:50:54.100Z,100.00
2023-03-13T20:53:21.082Z,100.00
2023-03-13T20:55:48.318Z,100.00
2023-03-13T20:58:15.829Z,100.00
2023-03-13T21:00:42.986Z,100.00
2023-03-13T21:03:09.768Z,100.00
2023-03-13T21:05:39.931Z,100.00
2023-03-13T21:08:07.098Z,100.00
2023-03-13T21:10:38.178Z,100.00
2023-03-13T21:13:05.382Z,100.00
2023-03-13T21:15:32.358Z,100.00
2023-03-13T21:17:58.843Z,100.00
2023-03-13T21:20:26.140Z,100.00
2023-03-13T21:22:52.647Z,100.00
2023-03-13T21:25:19.312Z,100.00
2023-03-13T21:27:45.728Z,100.00
2023-03-13T21:30:17.979Z,100.00
2023-03-13T21:32:45.432Z,100.00
2023-03-13T21:35:12.771Z,100.00
2023-03-13T21:37:39.786Z,100.00
2023-03-13T21:40:08.801Z,100.00
2023-03-13T21:42:36.068Z,100.00
2023-03-13T21:45:03.953Z,100.00
2023-03-13T21:47:31.557Z,100.00
2023-03-13T21:50:00.411Z,100.00
2023-03-13T21:52:26.940Z,100.00
2023-03-13T21:54:53.385Z,100.00
2023-03-13T21:57:19.701Z,100.00
2023-03-13T21:59:46.078Z,100.00
2023-03-13T22:02:13.437Z,100.00
2023-03-13T22:04:40.035Z,100.00
2023-03-13T22:07:06.786Z,100.00
2023-03-13T22:09:33.426Z,100.00
2023-03-13T22:11:59.822Z,100.00
2023-03-13T22:14:27.880Z,100.00
2023-03-13T22:16:54.669Z,100.00
2023-03-13T22:19:21.146Z,100.00
2023-03-13T22:21:47.509Z,100.00
2023-03-13T22:24:13.866Z,100.00
2023-03-13T22:26:40.178Z,100.00
2023-03-13T22:29:06.541Z,100.00
2023-03-13T22:31:32.937Z,100.00
2023-03-13T22:33:59.322Z,100.00
2023-03-13T22:36:25.747Z,100.00
2023-03-13T22:38:52.151Z,100.00
2023-03-13T22:41:18.719Z,100.00
2023-03-13T22:43:45.101Z,100.00
2023-03-13T22:46:12.124Z,100.00
2023-03-13T22:48:39.084Z,100.00
2023-03-13T22:51:11.581Z,100.00
2023-03-13T22:53:39.970Z,100.00
2023-03-13T22:56:09.769Z,100.00
2023-03-13T22:58:37.118Z,100.00
2023-03-13T23:01:12.641Z,100.00
2023-03-13T23:03:39.587Z,100.00
2023-03-13T23:06:08.291Z,100.00
2023-03-13T23:08:35.629Z,100.00
2023-03-13T23:11:03.417Z,100.00
2023-03-13T23:13:30.653Z,100.00
2023-03-13T23:15:57.606Z,100.00
2023-03-13T23:18:26.367Z,100.00
2023-03-13T23:20:53.118Z,100.00
2023-03-13T23:23:19.710Z,100.00
2023-03-13T23:25:46.161Z,100.00
2023-03-13T23:28:12.607Z,100.00
2023-03-13T23:30:39.039Z,100.00
2023-03-13T23:33:05.695Z,100.00
2023-03-13T23:35:32.161Z,100.00
2023-03-13T23:37:58.550Z,100.00
2023-03-13T23:40:25.128Z,100.00
2023-03-13T23:42:51.672Z,100.00
2023-03-13T23:45:18.947Z,100.00
2023-03-13T23:47:45.745Z,100.00
2023-03-13T23:50:14.448Z,100.00
2023-03-13T23:52:41.398Z,100.00
2023-03-13T23:55:08.464Z,100.00
2023-03-13T23:57:37.520Z,100.00
